createdAt,value
2018-08-23T03:34:53.078Z,71.49
2018-08-23T03:35:52.987Z,71.30
2018-08-23T03:37:46.323Z,71.88
2018-08-23T03:38:46.201Z,71.78
2018-08-23T03:39:46.136Z,72.01
2018-08-23T03:40:46.084Z,71.78
2018-08-23T03:41:46.024Z,71.78
2018-08-23T03:42:45.961Z,71.88
2018-08-23T03:43:45.900Z,71.20
2018-08-23T03:44:45.833Z,71.40
2018-08-23T03:45:45.774Z,71.49
2018-08-23T03:46:45.722Z,72.07
2018-08-23T03:47:45.652Z,71.88
2018-08-23T03:48:45.596Z,71.88
2018-08-23T03:49:45.535Z,72.17
2018-08-23T03:50:45.476Z,72.07
2018-08-23T03:51:45.415Z,72.30
2018-08-23T03:52:45.348Z,71.59
2018-08-23T03:53:45.313Z,71.43
2018-08-23T03:54:45.247Z,71.24
2018-08-23T03:55:45.174Z,71.30
2018-08-23T03:56:45.109Z,72.17
2018-08-23T03:57:45.044Z,72.17
2018-08-23T03:58:44.987Z,72.17
2018-08-23T03:59:44.926Z,72.17
2018-08-23T04:00:44.872Z,71.97
2018-08-23T04:01:44.812Z,71.88
2018-08-23T04:02:44.750Z,71.78
2018-08-23T04:03:44.692Z,71.88
2018-08-23T04:04:44.624Z,71.69
2018-08-23T04:05:44.575Z,72.17
2018-08-23T04:06:44.503Z,72.07
2018-08-23T04:07:44.446Z,71.88
2018-08-23T04:08:44.395Z,71.88
2018-08-23T04:09:44.343Z,71.91
2018-08-23T04:10:44.261Z,71.88
2018-08-23T04:11:44.202Z,71.97
2018-08-23T04:12:44.147Z,72.17
2018-08-23T04:13:44.087Z,72.45
2018-08-23T04:14:44.029Z,72.55
2018-08-23T04:15:43.975Z,72.84
2018-08-23T04:16:43.900Z,72.74
2018-08-23T04:17:43.850Z,72.45
2018-08-23T04:18:43.781Z,72.55
2018-08-23T04:19:43.730Z,72.84
2018-08-23T04:20:43.685Z,72.94
2018-08-23T04:21:43.613Z,72.74
2018-08-23T04:22:43.582Z,72.65
2018-08-23T04:23:43.487Z,73.03
2018-08-23T04:24:43.424Z,72.71
2018-08-23T04:25:43.382Z,72.94
2018-08-23T04:26:43.305Z,72.94
2018-08-23T04:27:43.245Z,72.65
2018-08-23T04:28:43.178Z,72.65
2018-08-23T04:29:43.120Z,72.74
2018-08-23T04:30:43.059Z,72.55
2018-08-23T04:31:43.001Z,72.55
2018-08-23T04:32:42.946Z,72.65
2018-08-23T04:33:42.884Z,72.84
2018-08-23T04:34:42.824Z,73.13
2018-08-23T04:35:42.764Z,72.84
2018-08-23T04:36:42.698Z,72.84
2018-08-23T04:37:42.636Z,73.22
2018-08-23T04:38:42.581Z,72.84
2018-08-23T04:39:42.519Z,72.94
2018-08-23T04:40:42.466Z,72.55
2018-08-23T04:41:42.423Z,72.74
2018-08-23T04:42:42.336Z,72.94
2018-08-23T04:43:42.277Z,72.94
2018-08-23T04:44:42.223Z,73.03
2018-08-23T04:45:42.162Z,72.71
2018-08-23T04:46:42.106Z,73.47
2018-08-23T04:47:42.046Z,73.38
2018-08-23T04:48:41.981Z,73.42
2018-08-23T04:49:41.920Z,73.42
2018-08-23T04:50:41.858Z,73.42
2018-08-23T04:51:41.885Z,73.71
2018-08-23T04:52:41.751Z,73.61
2018-08-23T04:53:41.686Z,73.61
2018-08-23T04:54:41.628Z,72.94
2018-08-23T04:55:41.566Z,72.74
2018-08-23T04:56:41.502Z,72.74
2018-08-23T04:57:41.450Z,73.03
2018-08-23T04:58:41.384Z,72.94
2018-08-23T04:59:41.327Z,72.84
2018-08-23T05:00:41.258Z,73.13
2018-08-23T05:01:41.196Z,73.32
2018-08-23T05:02:41.137Z,72.94
2018-08-23T05:03:41.075Z,72.84
2018-08-23T05:04:41.022Z,72.84
2018-08-23T05:05:40.966Z,72.97
2018-08-23T05:06:40.902Z,72.74
2018-08-23T05:07:40.844Z,72.65
2018-08-23T05:08:40.773Z,72.59
2018-08-23T05:09:40.722Z,73.16
2018-08-23T05:10:40.655Z,72.59
2018-08-23T05:11:40.596Z,73.16
2018-08-23T05:12:40.558Z,72.45
2018-08-23T05:13:40.479Z,72.55
2018-08-23T05:14:40.414Z,73.03
2018-08-23T05:15:40.359Z,73.13
2018-08-23T05:16:40.303Z,72.65
2018-08-23T05:17:40.243Z,72.74
2018-08-23T05:18:40.182Z,73.13
2018-08-23T05:19:40.120Z,72.78
2018-08-23T05:20:40.055Z,73.16
2018-08-23T05:21:39.994Z,72.68
2018-08-23T05:22:39.938Z,72.59
2018-08-23T05:23:39.876Z,72.68
2018-08-23T05:24:39.821Z,72.59
2018-08-23T05:25:39.763Z,72.84
2018-08-23T05:26:39.710Z,72.74
2018-08-23T05:27:39.648Z,72.97
2018-08-23T05:28:39.579Z,72.97
2018-08-23T05:29:39.549Z,72.84
2018-08-23T05:30:39.468Z,73.03
2018-08-23T05:31:39.401Z,73.03
2018-08-23T05:32:39.334Z,72.68
2018-08-23T05:33:39.276Z,73.07
2018-08-23T05:34:39.218Z,72.65
2018-08-23T05:35:39.159Z,72.49
2018-08-23T05:36:39.106Z,72.49
2018-08-23T05:37:39.044Z,72.49
2018-08-23T05:38:38.985Z,72.30
2018-08-23T05:39:38.925Z,72.11
2018-08-23T05:40:38.860Z,72.20
2018-08-23T05:41:38.799Z,72.30
2018-08-23T05:42:38.739Z,72.49
2018-08-23T05:43:38.680Z,72.20
2018-08-23T05:44:38.629Z,71.91
2018-08-23T05:45:38.588Z,72.14
2018-08-23T05:46:38.502Z,71.95
2018-08-23T05:47:38.498Z,71.56
2018-08-23T05:48:38.386Z,71.56
2018-08-23T05:49:38.327Z,71.37
2018-08-23T05:50:38.269Z,71.56
2018-08-23T05:51:38.212Z,71.37
2018-08-23T05:52:38.142Z,71.47
2018-08-23T05:53:38.082Z,71.28
2018-08-23T05:54:38.022Z,71.37
2018-08-23T05:55:37.963Z,71.85
2018-08-23T05:56:37.913Z,71.95
2018-08-23T05:57:37.849Z,71.95
2018-08-23T05:58:37.792Z,71.50
2018-08-23T05:59:37.730Z,71.41
2018-08-23T06:00:37.666Z,71.22
2018-08-23T06:01:37.609Z,71.41
2018-08-23T06:02:37.610Z,71.79
2018-08-23T06:03:37.492Z,71.41
2018-08-23T06:04:37.427Z,70.92
2018-08-23T06:05:37.367Z,71.02
2018-08-23T06:06:37.310Z,70.73
2018-08-23T06:07:37.254Z,70.64
2018-08-23T06:08:37.197Z,71.31
2018-08-23T06:09:37.135Z,70.64
2018-08-23T06:10:37.079Z,71.22
2018-08-23T06:11:37.019Z,71.12
2018-08-23T06:12:36.953Z,70.64
2018-08-23T06:13:36.893Z,70.92
2018-08-23T06:14:36.834Z,70.96
2018-08-23T06:15:36.776Z,70.67
2018-08-23T06:16:36.725Z,70.57
2018-08-23T06:17:36.666Z,70.38
2018-08-23T06:18:36.603Z,70.48
2018-08-23T06:19:36.539Z,70.38
2018-08-23T06:20:36.483Z,70.38
2018-08-23T06:21:36.429Z,70.28
2018-08-23T06:22:36.366Z,70.32
2018-08-23T06:23:36.310Z,70.19
2018-08-23T06:24:36.248Z,70.00
2018-08-23T06:25:36.183Z,70.03
2018-08-23T06:26:36.125Z,70.61
2018-08-23T06:27:36.066Z,70.42
2018-08-23T06:28:36.019Z,70.61
2018-08-23T06:29:35.954Z,69.64
2018-08-23T06:30:35.899Z,69.64
2018-08-23T06:31:35.839Z,69.74
2018-08-23T06:32:35.773Z,69.35
2018-08-23T06:33:35.885Z,69.35
2018-08-23T06:34:35.685Z,69.35
2018-08-23T06:35:35.620Z,69.35
2018-08-23T06:36:35.541Z,70.03
2018-08-23T06:37:35.524Z,69.58
2018-08-23T06:38:35.447Z,69.68
2018-08-23T06:39:35.360Z,69.39
2018-08-23T06:40:35.307Z,69.20
2018-08-23T06:41:35.250Z,69.49
2018-08-23T06:42:35.190Z,68.81
2018-08-23T06:43:35.131Z,69.10
2018-08-23T06:44:35.174Z,68.46
2018-08-23T06:45:35.013Z,68.94
2018-08-23T06:46:34.950Z,68.65
2018-08-23T06:47:34.896Z,68.65
2018-08-23T06:48:34.841Z,68.94
2018-08-23T06:49:34.792Z,68.46
2018-08-23T06:50:34.721Z,67.97
2018-08-23T06:51:34.659Z,68.07
2018-08-23T06:52:34.613Z,67.97
2018-08-23T06:53:34.548Z,68.01
2018-08-23T06:54:34.494Z,67.72
2018-08-23T06:55:34.441Z,67.59
2018-08-23T06:56:34.385Z,67.69
2018-08-23T06:57:34.311Z,67.43
2018-08-23T06:58:34.255Z,67.72
2018-08-23T06:59:34.194Z,67.62
2018-08-23T07:00:34.143Z,67.62
2018-08-23T07:01:34.085Z,67.43
2018-08-23T07:02:34.027Z,67.33
2018-08-23T07:03:33.969Z,67.52
2018-08-23T07:04:33.904Z,67.91
2018-08-23T07:05:33.902Z,67.62
2018-08-23T07:06:33.854Z,67.62
2018-08-23T07:07:33.745Z,67.27
2018-08-23T07:08:33.675Z,67.46
2018-08-23T07:09:33.612Z,66.98
2018-08-23T07:10:33.613Z,66.88
2018-08-23T07:11:33.498Z,67.27
2018-08-23T07:12:33.447Z,67.36
2018-08-23T07:13:33.388Z,67.17
2018-08-23T07:14:33.334Z,66.88
2018-08-23T07:15:33.276Z,66.69
2018-08-23T07:16:33.208Z,67.01
2018-08-23T07:17:33.221Z,66.33
2018-08-23T07:18:33.092Z,66.05
2018-08-23T07:19:33.038Z,66.50
2018-08-23T07:20:32.984Z,66.24
2018-08-23T07:21:32.926Z,65.85
2018-08-23T07:22:32.875Z,66.14
2018-08-23T07:23:32.815Z,66.14
2018-08-23T07:24:32.755Z,65.95
2018-08-23T07:25:32.700Z,66.17
2018-08-23T07:26:32.644Z,66.17
2018-08-23T07:27:32.586Z,66.17
2018-08-23T07:28:32.517Z,65.79
2018-08-23T07:29:32.461Z,65.88
2018-08-23T07:30:32.405Z,66.47
2018-08-23T07:31:32.349Z,66.66
2018-08-23T07:32:32.296Z,65.79
2018-08-23T07:33:32.258Z,65.59
2018-08-23T07:34:32.181Z,66.20
2018-08-23T07:35:32.134Z,65.40
2018-08-23T07:36:32.059Z,65.30
2018-08-23T07:37:32.005Z,65.43
2018-08-23T07:38:31.955Z,65.43
2018-08-23T07:39:31.900Z,65.53
2018-08-23T07:40:31.835Z,65.53
2018-08-23T07:41:31.776Z,65.53
2018-08-23T07:42:31.717Z,65.14
2018-08-23T07:43:31.667Z,65.53
2018-08-23T07:44:31.613Z,65.53
2018-08-23T07:45:31.553Z,65.75
2018-08-23T07:46:31.498Z,65.47
2018-08-23T07:47:31.442Z,65.37
2018-08-23T07:48:31.435Z,65.17
2018-08-23T07:49:31.321Z,65.08
2018-08-23T07:50:31.262Z,64.50
2018-08-23T07:51:31.219Z,64.50
2018-08-23T07:52:31.206Z,64.11
2018-08-23T07:53:31.308Z,64.59
2018-08-23T07:54:31.040Z,64.40
2018-08-23T07:55:30.981Z,64.11
2018-08-23T07:56:30.962Z,63.95
2018-08-23T07:57:30.903Z,64.04
2018-08-23T07:58:30.817Z,64.43
2018-08-23T07:59:30.757Z,63.17
2018-08-23T08:00:30.699Z,63.56
2018-08-23T08:01:30.640Z,63.65
2018-08-23T08:02:30.582Z,63.37
2018-08-23T08:03:30.529Z,63.75
2018-08-23T08:04:30.483Z,62.88
2018-08-23T08:05:30.428Z,62.72
2018-08-23T08:06:30.370Z,62.82
2018-08-23T08:07:30.313Z,62.52
2018-08-23T08:08:30.247Z,62.72
2018-08-23T08:09:30.198Z,62.43
2018-08-23T08:10:30.140Z,62.43
2018-08-23T08:11:30.083Z,62.52
2018-08-23T08:12:30.019Z,62.82
2018-08-23T08:13:29.977Z,62.62
2018-08-23T08:14:29.940Z,62.23
2018-08-23T08:15:29.851Z,62.23
2018-08-23T08:16:29.800Z,62.04
2018-08-23T08:17:29.748Z,61.88
2018-08-23T08:18:29.688Z,61.49
2018-08-23T08:19:29.631Z,61.98
2018-08-23T08:20:29.570Z,62.26
2018-08-23T08:21:29.548Z,61.68
2018-08-23T08:22:29.461Z,61.19
2018-08-23T08:23:29.403Z,61.49
2018-08-23T08:24:29.356Z,61.19
2018-08-23T08:25:29.306Z,61.58
2018-08-23T08:26:29.232Z,60.71
2018-08-23T08:27:29.174Z,61.10
2018-08-23T08:28:29.128Z,60.91
2018-08-23T08:29:29.072Z,60.35
2018-08-23T08:30:29.020Z,60.35
2018-08-23T08:31:28.973Z,60.55
2018-08-23T08:32:28.898Z,60.74
2018-08-23T08:33:28.842Z,60.35
2018-08-23T08:34:28.785Z,59.87
2018-08-23T08:35:28.731Z,60.25
2018-08-23T08:36:28.685Z,59.77
2018-08-23T08:37:28.628Z,59.48
2018-08-23T08:38:28.568Z,59.31
2018-08-23T08:39:28.514Z,59.19
2018-08-23T08:40:28.448Z,59.03
2018-08-23T08:41:28.391Z,59.12
2018-08-23T08:42:28.344Z,59.22
2018-08-23T08:43:28.291Z,59.31
2018-08-23T08:44:28.227Z,59.22
2018-08-23T08:45:28.170Z,58.64
2018-08-23T08:46:28.115Z,58.64
2018-08-23T08:47:28.064Z,58.64
2018-08-23T08:48:28.036Z,58.57
2018-08-23T08:49:27.961Z,58.54
2018-08-23T08:50:27.926Z,58.44
2018-08-23T08:51:27.844Z,58.28
2018-08-23T08:52:27.785Z,58.28
2018-08-23T08:53:27.737Z,57.50
2018-08-23T08:54:27.675Z,57.69
2018-08-23T08:55:27.617Z,57.86
2018-08-23T08:56:27.571Z,57.69
2018-08-23T08:57:27.512Z,57.21
2018-08-23T08:58:27.449Z,56.72
2018-08-23T08:59:27.395Z,56.46
2018-08-23T09:00:27.352Z,57.01
2018-08-23T09:01:27.291Z,57.11
2018-08-23T09:02:27.239Z,57.01
2018-08-23T09:03:27.184Z,57.40
2018-08-23T09:04:27.120Z,56.46
2018-08-23T09:05:27.066Z,55.88
2018-08-23T09:06:27.010Z,56.46
2018-08-23T09:07:26.953Z,55.98
2018-08-23T09:08:26.905Z,56.07
2018-08-23T09:09:26.850Z,55.88
2018-08-23T09:10:26.794Z,55.68
2018-08-23T09:11:26.743Z,55.49
2018-08-23T09:12:26.678Z,55.49
2018-08-23T09:13:26.622Z,55.10
2018-08-23T09:14:26.572Z,55.19
2018-08-23T09:15:26.520Z,55.03
2018-08-23T09:16:26.466Z,54.90
2018-08-23T09:17:26.403Z,55.41
2018-08-23T09:18:26.346Z,55.49
2018-08-23T09:19:26.298Z,54.83
2018-08-23T09:20:26.264Z,55.03
2018-08-23T09:21:26.197Z,55.41
2018-08-23T09:22:26.139Z,54.54
2018-08-23T09:23:26.102Z,54.25
2018-08-23T09:24:26.019Z,54.15
2018-08-23T09:25:25.963Z,54.25
2018-08-23T09:26:25.908Z,53.96
2018-08-23T09:27:25.854Z,53.96
2018-08-23T09:28:25.806Z,53.89
2018-08-23T09:29:25.755Z,54.28
2018-08-23T09:30:25.690Z,53.99
2018-08-23T09:31:25.631Z,53.50
2018-08-23T09:32:25.585Z,53.59
2018-08-23T09:33:25.530Z,53.40
2018-08-23T09:34:25.482Z,53.11
2018-08-23T09:35:25.422Z,53.30
2018-08-23T09:36:25.359Z,53.30
2018-08-23T09:37:25.305Z,53.20
2018-08-23T09:38:25.260Z,53.30
2018-08-23T09:39:25.197Z,53.01
2018-08-23T09:40:25.148Z,53.20
2018-08-23T09:41:25.096Z,53.40
2018-08-23T09:42:25.040Z,52.72
2018-08-23T09:43:24.985Z,52.62
2018-08-23T09:44:24.940Z,52.82
2018-08-23T09:45:24.872Z,52.92
2018-08-23T09:46:24.822Z,52.92
2018-08-23T09:47:24.779Z,52.45
2018-08-23T09:48:24.704Z,52.06
2018-08-23T09:49:24.654Z,52.16
2018-08-23T09:50:24.594Z,51.97
2018-08-23T09:51:24.542Z,52.26
2018-08-23T09:52:24.501Z,51.84
2018-08-23T09:53:24.442Z,52.16
2018-08-23T09:54:24.388Z,52.26
2018-08-23T09:55:24.332Z,51.58
2018-08-23T09:56:24.268Z,51.67
2018-08-23T09:57:24.219Z,51.67
2018-08-23T09:58:24.203Z,51.41
2018-08-23T09:59:24.117Z,51.02
2018-08-23T10:00:24.057Z,50.92
2018-08-23T10:01:24.003Z,51.31
2018-08-23T10:02:23.943Z,51.41
2018-08-23T10:03:23.890Z,51.12
2018-08-23T10:04:23.869Z,51.21
2018-08-23T10:05:23.791Z,51.31
2018-08-23T10:06:23.727Z,51.21
2018-08-23T10:07:23.674Z,50.92
2018-08-23T10:08:23.619Z,51.21
2018-08-23T10:09:23.559Z,51.12
2018-08-23T10:10:23.514Z,51.21
2018-08-23T10:11:23.512Z,50.82
2018-08-23T10:12:23.402Z,50.73
2018-08-23T10:13:23.358Z,50.65
2018-08-23T10:14:23.304Z,50.53
2018-08-23T10:15:23.259Z,50.43
2018-08-23T10:16:23.187Z,50.63
2018-08-23T10:17:23.132Z,50.63
2018-08-23T10:18:23.079Z,50.63
2018-08-23T10:19:23.029Z,50.43
2018-08-23T10:20:22.968Z,50.46
2018-08-23T10:21:22.918Z,50.36
2018-08-23T10:22:22.854Z,50.73
2018-08-23T10:23:22.801Z,50.73
2018-08-23T10:24:22.754Z,50.63
2018-08-23T10:25:22.707Z,50.46
2018-08-23T10:26:22.674Z,50.16
2018-08-23T10:27:22.590Z,50.36
2018-08-23T10:28:22.528Z,50.46
2018-08-23T10:29:22.480Z,50.56
2018-08-23T10:30:22.423Z,49.90
2018-08-23T10:31:22.373Z,49.71
2018-08-23T10:32:22.428Z,49.71
2018-08-23T10:33:22.284Z,49.68
2018-08-23T10:34:22.211Z,49.97
2018-08-23T10:35:22.152Z,49.71
2018-08-23T10:36:22.111Z,49.68
2018-08-23T10:37:22.050Z,49.49
2018-08-23T10:38:22.076Z,49.71
2018-08-23T10:39:21.945Z,49.71
2018-08-23T10:40:21.882Z,49.41
2018-08-23T10:41:21.826Z,49.51
2018-08-23T10:42:21.773Z,49.32
2018-08-23T10:43:21.725Z,49.32
2018-08-23T10:44:21.764Z,49.22
2018-08-23T10:45:21.620Z,49.12
2018-08-23T10:46:21.565Z,49.15
2018-08-23T10:47:21.512Z,48.56
2018-08-23T10:48:21.451Z,48.85
2018-08-23T10:49:21.395Z,48.85
2018-08-23T10:50:22.009Z,48.85
2018-08-23T10:51:21.327Z,48.95
2018-08-23T10:52:21.236Z,48.75
2018-08-23T10:53:21.187Z,48.07
2018-08-23T10:54:21.130Z,48.19
2018-08-23T10:55:21.076Z,47.78
2018-08-23T10:56:21.030Z,47.68
2018-08-23T10:57:20.974Z,47.51
2018-08-23T10:58:20.922Z,47.12
2018-08-23T10:59:20.868Z,47.31
2018-08-23T11:00:20.806Z,46.66
2018-08-23T11:01:20.751Z,46.07
2018-08-23T11:02:20.704Z,46.17
2018-08-23T11:03:20.647Z,46.07
2018-08-23T11:04:20.598Z,46.56
2018-08-23T11:05:20.548Z,45.78
2018-08-23T11:06:20.493Z,45.51
2018-08-23T11:07:20.438Z,45.80
2018-08-23T11:08:20.399Z,45.51
2018-08-23T11:09:20.339Z,45.31
2018-08-23T11:10:20.284Z,45.31
2018-08-23T11:11:27.870Z,45.19
2018-08-23T11:13:13.548Z,45.21
2018-08-23T11:14:13.462Z,45.02
2018-08-23T11:16:07.786Z,44.82
2018-08-23T11:17:07.763Z,44.74
2018-08-23T11:19:01.031Z,44.74
2018-08-23T11:20:00.948Z,44.38
2018-08-23T11:21:55.265Z,44.28
2018-08-23T11:22:55.186Z,43.59
2018-08-23T11:23:55.130Z,43.69
2018-08-23T11:24:55.075Z,43.69
2018-08-23T11:25:55.014Z,43.81
2018-08-23T11:26:54.970Z,43.42
2018-08-23T11:27:54.913Z,43.32
2018-08-23T11:28:54.870Z,42.46
2018-08-23T11:29:54.842Z,42.66
2018-08-23T11:30:54.765Z,42.48
2018-08-23T11:31:54.722Z,41.72
2018-08-23T11:32:54.665Z,42.02
2018-08-23T11:33:54.614Z,41.82
2018-08-23T11:34:54.560Z,41.55
2018-08-23T11:35:54.508Z,41.35
2018-08-23T11:36:54.478Z,41.17
2018-08-23T11:37:54.443Z,40.88
2018-08-23T11:38:54.367Z,40.58
2018-08-23T11:39:54.310Z,40.48
2018-08-23T11:40:54.263Z,40.39
2018-08-23T11:41:54.222Z,40.19
2018-08-23T11:42:54.188Z,39.82
2018-08-23T11:43:54.120Z,39.92
2018-08-23T11:44:54.071Z,39.72
2018-08-23T11:45:54.017Z,40.11
2018-08-23T11:46:54.428Z,39.72
2018-08-23T11:47:53.921Z,39.62
2018-08-23T11:48:53.939Z,39.15
2018-08-23T11:49:53.846Z,39.06
2018-08-23T11:50:53.786Z,38.96
2018-08-23T11:51:53.752Z,38.85
2018-08-23T11:52:53.698Z,38.98
2018-08-23T11:53:53.663Z,38.58
2018-08-23T11:54:53.595Z,38.48
2018-08-23T11:55:53.577Z,38.29
2018-08-23T11:56:53.528Z,38.39
2018-08-23T11:57:53.495Z,38.29
2018-08-23T11:58:53.421Z,38.39
2018-08-23T11:59:53.368Z,38.17
2018-08-23T12:00:53.324Z,38.39
2018-08-23T12:01:53.283Z,38.09
2018-08-23T12:02:53.238Z,38.19
2018-08-23T12:03:53.203Z,37.80
2018-08-23T12:04:53.147Z,37.72
2018-08-23T12:05:53.129Z,37.52
2018-08-23T12:06:53.062Z,37.52
2018-08-23T12:07:53.013Z,37.52
2018-08-23T12:08:52.960Z,37.42
2018-08-23T12:09:52.975Z,37.40
2018-08-23T12:10:52.874Z,37.13
2018-08-23T12:11:52.827Z,37.15
2018-08-23T12:12:52.778Z,36.85
2018-08-23T12:13:52.741Z,36.67
2018-08-23T12:14:52.697Z,36.18
2018-08-23T12:15:52.652Z,36.65
2018-08-23T12:16:52.633Z,36.75
2018-08-23T12:17:52.553Z,36.54
2018-08-23T12:18:52.512Z,37.03
2018-08-23T12:19:52.464Z,36.91
2018-08-23T12:20:52.423Z,37.01
2018-08-23T12:21:52.381Z,37.19
2018-08-23T12:22:52.337Z,37.37
2018-08-23T12:23:52.289Z,37.37
2018-08-23T12:24:52.243Z,37.66
2018-08-23T12:25:52.290Z,37.66
2018-08-23T12:26:52.141Z,37.37
2018-08-23T12:27:52.104Z,37.46
2018-08-23T12:28:52.056Z,37.27
2018-08-23T12:29:52.001Z,36.98
2018-08-23T12:30:51.948Z,36.90
2018-08-23T12:31:51.926Z,36.90
2018-08-23T12:32:51.877Z,36.99
2018-08-23T12:33:51.811Z,36.91
2018-08-23T12:34:51.810Z,36.62
2018-08-23T12:35:51.716Z,36.62
2018-08-23T12:36:51.671Z,36.90
2018-08-23T12:37:51.634Z,36.99
2018-08-23T12:38:51.564Z,36.72
2018-08-23T12:39:51.518Z,36.24
2018-08-23T12:40:51.489Z,36.07
2018-08-23T12:41:51.427Z,35.87
2018-08-23T12:42:51.380Z,35.78
2018-08-23T12:43:51.382Z,35.71
2018-08-23T12:44:51.279Z,35.21
2018-08-23T12:45:51.245Z,35.31
2018-08-23T12:46:51.193Z,35.03
2018-08-23T12:47:51.146Z,34.84
2018-08-23T12:48:51.100Z,34.17
2018-08-23T12:49:51.107Z,34.66
2018-08-23T12:50:51.008Z,34.36
2018-08-23T12:51:50.957Z,34.38
2018-08-23T12:52:50.913Z,34.44
2018-08-23T12:53:50.881Z,34.82
2018-08-23T12:54:50.830Z,34.92
2018-08-23T12:55:50.788Z,35.03
2018-08-23T12:56:50.742Z,34.44
2018-08-23T12:57:50.693Z,34.06
2018-08-23T12:58:50.655Z,33.97
2018-08-23T12:59:50.657Z,33.28
2018-08-23T13:00:50.562Z,33.59
2018-08-23T13:01:50.568Z,33.38
2018-08-23T13:02:50.540Z,33.97
2018-08-23T13:03:50.461Z,33.38
2018-08-23T13:04:50.381Z,33.58
2018-08-23T13:05:50.336Z,33.38
2018-08-23T13:06:50.296Z,33.48
2018-08-23T13:07:50.246Z,33.46
2018-08-23T13:08:50.209Z,33.94
2018-08-23T13:09:50.152Z,33.95
2018-08-23T13:10:50.116Z,33.48
2018-08-23T13:11:50.061Z,33.49
2018-08-23T13:12:50.012Z,32.90
2018-08-23T13:13:49.980Z,33.28
2018-08-23T13:14:49.939Z,33.10
2018-08-23T13:15:49.882Z,32.82
2018-08-23T13:16:49.833Z,32.82
2018-08-23T13:17:49.793Z,32.34
2018-08-23T13:18:49.747Z,31.96
2018-08-23T13:19:49.712Z,31.78
2018-08-23T13:20:49.657Z,31.29
2018-08-23T13:21:49.638Z,31.96
2018-08-23T13:22:49.562Z,31.85
2018-08-23T13:23:49.518Z,32.03
2018-08-23T13:24:49.472Z,32.51
2018-08-23T13:25:49.435Z,32.62
2018-08-23T13:26:49.387Z,31.67
2018-08-23T13:27:49.343Z,31.48
2018-08-23T13:28:49.298Z,31.10
2018-08-23T13:29:49.263Z,30.43
2018-08-23T13:30:49.227Z,30.24
2018-08-23T13:31:49.165Z,30.06
2018-08-23T13:32:49.123Z,29.96
2018-08-23T13:33:49.069Z,29.77
2018-08-23T13:34:49.024Z,29.68
2018-08-23T13:35:48.981Z,29.39
2018-08-23T13:36:49.079Z,29.10
2018-08-23T13:37:48.901Z,28.92
2018-08-23T13:38:48.898Z,28.92
2018-08-23T13:39:48.818Z,28.62
2018-08-23T13:40:48.791Z,28.90
2018-08-23T13:41:48.758Z,28.69
2018-08-23T13:42:48.681Z,28.99
2018-08-23T13:43:48.639Z,28.79
2018-08-23T13:44:48.594Z,28.80
2018-08-23T13:45:48.564Z,28.31
2018-08-23T13:46:48.527Z,27.73
2018-08-23T13:47:48.478Z,28.13
2018-08-23T13:48:48.448Z,28.01
2018-08-23T13:49:48.387Z,28.49
2018-08-23T13:50:48.350Z,28.66
2018-08-23T13:51:48.306Z,29.05
2018-08-23T13:52:48.295Z,29.52
2018-08-23T13:53:48.228Z,29.33
2018-08-23T13:54:48.180Z,29.33
2018-08-23T13:55:48.125Z,28.55
2018-08-23T13:56:48.080Z,28.38
2018-08-23T13:57:48.049Z,28.11
2018-08-23T13:58:48.024Z,26.75
2018-08-23T13:59:47.954Z,26.86
2018-08-23T14:00:47.932Z,26.49
2018-08-23T14:01:47.872Z,26.59
2018-08-23T14:02:47.828Z,26.40
2018-08-23T14:03:47.782Z,25.82
2018-08-23T14:04:47.734Z,25.73
2018-08-23T14:05:47.685Z,25.55
2018-08-23T14:06:47.646Z,24.95
2018-08-23T14:07:47.635Z,25.25
2018-08-23T14:08:47.561Z,25.06
2018-08-23T14:09:47.517Z,24.47
2018-08-23T14:10:47.480Z,24.47
2018-08-23T14:11:47.439Z,24.48
2018-08-23T14:12:47.446Z,24.48
2018-08-23T14:13:47.342Z,24.17
2018-08-23T14:14:47.312Z,23.88
2018-08-23T14:15:47.257Z,23.99
2018-08-23T14:16:47.212Z,23.60
2018-08-23T14:17:47.179Z,23.76
2018-08-23T14:18:47.137Z,24.80
2018-08-23T14:19:47.090Z,24.72
2018-08-23T14:20:47.047Z,23.94
2018-08-23T14:21:47.031Z,23.37
2018-08-23T14:22:46.972Z,23.19
2018-08-23T14:23:46.931Z,23.18
2018-08-23T14:24:46.884Z,23.19
2018-08-23T14:25:46.831Z,23.12
2018-08-23T14:26:46.788Z,22.64
2018-08-23T14:27:46.745Z,22.31
2018-08-23T14:28:46.718Z,23.64
2018-08-23T14:29:46.667Z,24.41
2018-08-23T14:30:46.623Z,23.54
2018-08-23T14:31:46.583Z,23.99
2018-08-23T14:32:46.546Z,24.84
2018-08-23T14:33:46.489Z,25.42
2018-08-23T14:34:46.457Z,25.12
2018-08-23T14:35:46.407Z,24.38
2018-08-23T14:36:46.361Z,23.90
2018-08-23T14:37:46.317Z,22.66
2018-08-23T14:38:46.297Z,22.31
2018-08-23T14:39:46.222Z,21.33
2018-08-23T14:40:46.174Z,20.76
2018-08-23T14:41:46.143Z,20.83
2018-08-23T14:42:46.092Z,22.48
2018-08-23T14:43:46.049Z,21.39
2018-08-23T14:44:46.005Z,21.23
2018-08-23T14:45:45.956Z,20.57
2018-08-23T14:46:45.921Z,20.29
2018-08-23T14:47:45.862Z,19.81
2018-08-23T14:48:45.817Z,19.34
2018-08-23T14:49:45.784Z,19.13
2018-08-23T14:50:45.740Z,19.43
2018-08-23T14:51:45.686Z,19.62
2018-08-23T14:52:45.640Z,19.14
2018-08-23T14:53:45.609Z,19.04
2018-08-23T14:54:45.561Z,18.75
2018-08-23T14:55:45.515Z,18.16
2018-08-23T14:56:45.473Z,18.86
2018-08-23T14:57:45.426Z,18.48
2018-08-23T14:58:45.377Z,18.37
2018-08-23T14:59:45.339Z,18.18
2018-08-23T15:00:45.292Z,18.36
2018-08-23T15:01:45.252Z,19.20
2018-08-23T15:02:45.209Z,20.15
2018-08-23T15:03:45.165Z,21.67
2018-08-23T15:04:45.119Z,22.42
2018-08-23T15:05:45.073Z,23.18
2018-08-23T15:06:45.029Z,23.54
2018-08-23T15:07:45.080Z,24.30
2018-08-23T15:08:44.969Z,24.88
2018-08-23T15:09:44.907Z,25.26
2018-08-23T15:10:44.849Z,25.65
2018-08-23T15:11:44.804Z,26.14
2018-08-23T15:12:44.759Z,25.83
2018-08-23T15:13:44.715Z,26.23
2018-08-23T15:14:44.669Z,26.12
2018-08-23T15:15:44.623Z,26.41
2018-08-23T15:16:44.577Z,26.61
2018-08-23T15:17:44.528Z,26.50
2018-08-23T15:18:44.475Z,27.08
2018-08-23T15:19:44.428Z,26.79
2018-08-23T15:20:44.423Z,27.37
2018-08-23T15:21:44.338Z,27.57
2018-08-23T15:22:44.293Z,27.85
2018-08-23T15:23:44.238Z,27.85
2018-08-23T15:24:44.186Z,28.14
2018-08-23T15:25:44.148Z,27.66
2018-08-23T15:26:44.292Z,28.14
2018-08-23T15:27:44.066Z,28.14
2018-08-23T15:28:44.037Z,28.34
2018-08-23T15:29:43.943Z,28.54
2018-08-23T15:30:43.895Z,29.13
2018-08-23T15:31:43.850Z,28.74
2018-08-23T15:32:43.794Z,28.83
2018-08-23T15:33:43.751Z,29.21
2018-08-23T15:34:43.707Z,29.02
2018-08-23T15:35:43.656Z,29.51
2018-08-23T15:36:43.604Z,29.71
2018-08-23T15:37:43.549Z,30.19
2018-08-23T15:38:43.498Z,30.00
2018-08-23T15:39:43.470Z,30.00
2018-08-23T15:40:43.411Z,30.08
2018-08-23T15:41:43.361Z,30.28
2018-08-23T15:42:43.300Z,30.47
2018-08-23T15:43:43.253Z,30.58
2018-08-23T15:44:43.200Z,30.97
2018-08-23T15:45:43.163Z,31.35
2018-08-23T15:46:43.912Z,30.95
2018-08-23T15:47:43.071Z,30.85
2018-08-23T15:48:43.004Z,30.76
2018-08-23T15:49:42.948Z,30.76
2018-08-23T15:50:42.898Z,31.25
2018-08-23T15:51:42.849Z,31.35
2018-08-23T15:52:42.799Z,31.15
2018-08-23T15:53:42.758Z,31.54
2018-08-23T15:54:42.704Z,31.74
2018-08-23T15:55:42.681Z,31.84
2018-08-23T15:56:42.596Z,31.74
2018-08-23T15:57:42.554Z,31.54
2018-08-23T15:58:42.504Z,31.64
2018-08-23T15:59:42.458Z,31.74
2018-08-23T16:00:42.401Z,31.64
2018-08-23T16:01:42.344Z,31.54
2018-08-23T16:02:42.303Z,31.84
2018-08-23T16:03:42.243Z,32.33
2018-08-23T16:04:42.194Z,32.62
2018-08-23T16:05:42.150Z,32.14
2018-08-23T16:06:42.098Z,32.41
2018-08-23T16:07:42.050Z,32.41
2018-08-23T16:08:41.997Z,32.90
2018-08-23T16:09:41.941Z,32.41
2018-08-23T16:10:41.891Z,32.59
2018-08-23T16:11:41.847Z,32.89
2018-08-23T16:12:41.796Z,32.90
2018-08-23T16:13:41.737Z,32.51
2018-08-23T16:14:41.686Z,32.61
2018-08-23T16:15:41.642Z,32.82
2018-08-23T16:16:41.587Z,32.92
2018-08-23T16:17:41.545Z,32.62
2018-08-23T16:18:41.490Z,32.51
2018-08-23T16:19:41.442Z,32.81
2018-08-23T16:20:41.390Z,32.61
2018-08-23T16:21:41.333Z,32.61
2018-08-23T16:22:41.286Z,32.90
2018-08-23T16:23:41.234Z,32.71
2018-08-23T16:24:41.181Z,32.71
2018-08-23T16:25:41.165Z,33.20
2018-08-23T16:26:41.091Z,33.00
2018-08-23T16:27:41.031Z,33.10
2018-08-23T16:28:40.978Z,33.10
2018-08-23T16:29:40.932Z,33.28
2018-08-23T16:30:40.886Z,33.39